createdAt,value
2018-08-17T00:00:06.777Z,85.60
2018-08-17T00:02:34.933Z,85.60
2018-08-17T00:05:03.128Z,85.80
2018-08-17T00:07:31.272Z,85.90
2018-08-17T00:09:59.523Z,86.40
2018-08-17T00:12:27.643Z,86.80
2018-08-17T00:14:55.751Z,86.40
2018-08-17T00:17:23.882Z,86.40
2018-08-17T00:19:51.999Z,87.50
2018-08-17T00:22:20.199Z,87.30
2018-08-17T00:24:48.348Z,87.30
2018-08-17T00:27:16.492Z,87.60
2018-08-17T00:29:44.664Z,88.50
2018-08-17T00:32:19.836Z,87.70
2018-08-17T00:34:48.114Z,87.50
2018-08-17T00:37:16.395Z,87.80
2018-08-17T00:39:44.527Z,88.00
2018-08-17T00:42:12.716Z,88.20
2018-08-17T00:44:40.848Z,88.40
2018-08-17T00:47:08.995Z,88.40
2018-08-17T00:49:37.246Z,88.70
2018-08-17T00:52:05.407Z,88.30
2018-08-17T00:54:33.558Z,88.90
2018-08-17T00:57:01.707Z,88.50
2018-08-17T00:59:29.901Z,88.80
2018-08-17T01:01:58.044Z,89.30
2018-08-17T01:04:26.178Z,87.90
2018-08-17T01:06:55.361Z,88.70
2018-08-17T01:09:23.505Z,87.80
2018-08-17T01:11:51.666Z,88.00
2018-08-17T01:14:19.963Z,87.60
2018-08-17T01:16:48.145Z,87.90
2018-08-17T01:19:16.281Z,88.00
2018-08-17T01:21:44.597Z,88.20
2018-08-17T01:24:12.707Z,87.80
2018-08-17T01:26:40.827Z,87.90
2018-08-17T01:29:09.060Z,87.50
2018-08-17T01:31:37.977Z,87.30
2018-08-17T01:34:06.148Z,87.60
2018-08-17T01:36:34.281Z,88.70
2018-08-17T01:39:02.406Z,88.00
2018-08-17T01:41:30.547Z,87.90
2018-08-17T01:43:58.719Z,88.30
2018-08-17T01:46:26.856Z,88.00
2018-08-17T01:48:54.999Z,88.10
2018-08-17T01:51:23.172Z,88.20
2018-08-17T01:53:51.308Z,88.50
2018-08-17T01:56:19.456Z,88.10
2018-08-17T01:58:48.175Z,88.40
2018-08-17T02:01:16.341Z,87.90
2018-08-17T02:03:44.472Z,87.80
2018-08-17T02:06:12.625Z,87.50
2018-08-17T02:08:40.831Z,88.00
2018-08-17T02:11:08.993Z,88.00
2018-08-17T02:13:37.120Z,88.30
2018-08-17T02:16:05.295Z,87.80
2018-08-17T02:18:33.446Z,87.70
2018-08-17T02:21:01.692Z,87.10
2018-08-17T02:23:29.835Z,87.30
2018-08-17T02:25:57.967Z,87.50
2018-08-17T02:28:26.111Z,87.70
2018-08-17T02:30:54.253Z,87.60
2018-08-17T02:33:22.423Z,87.30
2018-08-17T02:35:50.600Z,87.70
2018-08-17T02:38:18.711Z,88.20
2018-08-17T02:40:46.858Z,88.40
2018-08-17T02:43:15.039Z,88.20
2018-08-17T02:45:43.211Z,88.20
2018-08-17T02:48:11.328Z,88.50
2018-08-17T02:50:39.448Z,87.50
2018-08-17T02:53:07.965Z,87.50
2018-08-17T02:55:36.140Z,87.60
2018-08-17T02:58:05.257Z,87.50
2018-08-17T03:00:33.744Z,87.80
2018-08-17T03:03:01.961Z,88.00
2018-08-17T03:05:30.132Z,88.40
2018-08-17T03:07:58.279Z,87.90
2018-08-17T03:10:26.390Z,87.90
2018-08-17T03:12:54.517Z,87.90
2018-08-17T03:15:22.729Z,88.60
2018-08-17T03:17:51.423Z,87.80
2018-08-17T03:20:19.594Z,87.70
2018-08-17T03:22:47.823Z,88.10
2018-08-17T03:25:15.991Z,88.40
2018-08-17T03:27:44.144Z,88.60
2018-08-17T03:30:12.338Z,89.40
2018-08-17T03:32:40.448Z,89.60
2018-08-17T03:35:08.579Z,89.80
2018-08-17T03:37:36.775Z,90.20
2018-08-17T03:40:05.316Z,90.00
2018-08-17T03:42:33.460Z,89.70
2018-08-17T03:45:01.625Z,89.80
2018-08-17T03:47:29.781Z,90.00
2018-08-17T03:49:57.930Z,90.20
2018-08-17T03:52:26.063Z,90.10
2018-08-17T03:54:54.219Z,90.30
2018-08-17T03:57:22.376Z,90.30
2018-08-17T03:59:50.712Z,90.20
2018-08-17T04:02:18.837Z,90.30
2018-08-17T04:04:46.952Z,90.00
2018-08-17T04:07:15.159Z,90.00
2018-08-17T04:09:43.363Z,90.00
2018-08-17T04:12:11.511Z,90.00
2018-08-17T04:14:39.671Z,89.90
2018-08-17T04:17:07.773Z,89.80
2018-08-17T04:19:35.924Z,90.50
2018-08-17T04:22:04.129Z,90.00
2018-08-17T04:24:32.282Z,90.00
2018-08-17T04:27:00.438Z,90.00
2018-08-17T04:29:28.599Z,90.00
2018-08-17T04:31:56.724Z,90.00
2018-08-17T04:34:24.850Z,89.90
2018-08-17T04:36:53.014Z,90.00
2018-08-17T04:39:21.152Z,90.00
2018-08-17T04:41:49.294Z,89.70
2018-08-17T04:44:17.566Z,89.40
2018-08-17T04:46:45.728Z,89.00
2018-08-17T04:49:13.961Z,89.00
2018-08-17T04:51:42.092Z,89.50
2018-08-17T04:54:10.819Z,89.40
2018-08-17T04:56:39.041Z,89.30
2018-08-17T04:59:07.276Z,88.90
2018-08-17T05:01:35.412Z,88.90
2018-08-17T05:04:03.563Z,88.40
2018-08-17T05:06:31.679Z,88.10
2018-08-17T05:08:59.841Z,88.20
2018-08-17T05:11:27.959Z,88.00
2018-08-17T05:13:56.337Z,88.10
2018-08-17T05:16:24.487Z,87.90
2018-08-17T05:18:52.640Z,87.50
2018-08-17T05:21:20.892Z,87.70
2018-08-17T05:23:49.041Z,87.70
2018-08-17T05:26:17.261Z,87.30
2018-08-17T05:28:45.386Z,88.30
2018-08-17T05:31:13.511Z,88.00
2018-08-17T05:33:41.678Z,88.20
2018-08-17T05:36:09.802Z,88.00
2018-08-17T05:38:37.904Z,87.60
2018-08-17T05:41:06.249Z,87.30
2018-08-17T05:43:34.392Z,87.10
2018-08-17T05:46:02.615Z,86.90
2018-08-17T05:48:31.052Z,86.10
2018-08-17T05:50:59.203Z,86.20
2018-08-17T05:53:27.350Z,85.80
2018-08-17T05:55:55.504Z,85.70
2018-08-17T05:58:23.651Z,85.50
2018-08-17T06:00:52.223Z,85.40
2018-08-17T06:03:20.363Z,85.60
2018-08-17T06:05:48.532Z,85.80
2018-08-17T06:08:16.691Z,86.80
2018-08-17T06:10:45.397Z,86.30
2018-08-17T06:13:13.669Z,85.60
2018-08-17T06:15:41.787Z,86.00
2018-08-17T06:18:10.829Z,86.30
2018-08-17T06:20:39.233Z,86.10
2018-08-17T06:23:07.345Z,86.20
2018-08-17T06:25:35.759Z,86.10
2018-08-17T06:28:03.897Z,86.70
2018-08-17T06:30:32.251Z,86.50
2018-08-17T06:33:00.656Z,86.30
2018-08-17T06:35:35.676Z,86.40
2018-08-17T06:38:03.830Z,85.90
2018-08-17T06:40:32.047Z,85.90
2018-08-17T06:43:00.187Z,85.70
2018-08-17T06:45:28.367Z,85.70
2018-08-17T06:47:56.485Z,87.00
2018-08-17T06:50:24.619Z,86.50
2018-08-17T06:52:52.765Z,86.40
2018-08-17T06:55:22.418Z,86.50
2018-08-17T06:57:50.834Z,87.40
2018-08-17T07:00:19.681Z,88.20
2018-08-17T07:02:47.862Z,91.20
2018-08-17T07:05:16.056Z,92.40
2018-08-17T07:07:44.217Z,92.80
2018-08-17T07:10:13.435Z,93.90
2018-08-17T07:12:42.135Z,93.30
2018-08-17T07:15:10.415Z,94.50
2018-08-17T07:17:38.754Z,94.30
2018-08-17T07:20:08.300Z,94.80
2018-08-17T07:22:36.468Z,96.00
2018-08-17T07:25:05.004Z,95.70
2018-08-17T07:27:33.127Z,96.00
2018-08-17T07:30:01.392Z,96.00
2018-08-17T07:32:41.312Z,96.20
2018-08-17T07:35:11.135Z,95.80
2018-08-17T07:40:34.256Z,96.40
2018-08-17T07:43:02.334Z,96.50
2018-08-17T07:45:30.439Z,96.80
2018-08-17T07:47:58.661Z,96.80
2018-08-17T07:50:26.687Z,96.90
2018-08-17T07:52:54.798Z,96.70
2018-08-17T07:55:22.916Z,96.40
2018-08-17T07:57:51.049Z,96.20
2018-08-17T08:00:19.203Z,96.70
2018-08-17T08:02:47.416Z,96.30
2018-08-17T08:05:15.521Z,95.80
2018-08-17T08:07:43.686Z,96.40
2018-08-17T08:10:12.155Z,96.60
2018-08-17T08:12:40.527Z,96.70
2018-08-17T08:15:08.888Z,96.60
2018-08-17T08:17:37.493Z,96.00
2018-08-17T08:20:17.215Z,95.40
2018-08-17T08:22:45.328Z,95.30
2018-08-17T08:25:13.528Z,94.30
2018-08-17T08:27:41.764Z,94.30
2018-08-17T08:30:09.930Z,93.90
2018-08-17T08:32:38.044Z,94.30
2018-08-17T08:35:06.993Z,94.20
2018-08-17T08:37:35.102Z,93.90
2018-08-17T08:40:03.230Z,92.90
2018-08-17T08:42:31.412Z,93.00
2018-08-17T08:44:59.523Z,92.60
2018-08-17T08:47:27.658Z,91.40
2018-08-17T08:49:55.819Z,91.60
2018-08-17T08:52:23.936Z,90.90
2018-08-17T08:54:52.028Z,90.90
2018-08-17T08:57:20.233Z,88.50
2018-08-17T08:59:48.640Z,84.70
2018-08-17T09:02:16.772Z,81.50
2018-08-17T09:04:44.917Z,82.00
2018-08-17T09:07:13.025Z,83.30
2018-08-17T09:09:41.142Z,81.60
2018-08-17T09:12:09.303Z,82.80
2018-08-17T09:14:37.432Z,76.80
2018-08-17T09:17:05.909Z,79.30
2018-08-17T09:19:34.612Z,78.40
2018-08-17T09:22:02.800Z,76.60
2018-08-17T09:24:30.929Z,72.40
2018-08-17T09:26:59.027Z,66.70
2018-08-17T09:29:27.168Z,66.20
2018-08-17T09:31:55.303Z,66.80
2018-08-17T09:34:24.048Z,69.00
2018-08-17T09:36:52.263Z,70.20
2018-08-17T09:39:20.475Z,72.50
2018-08-17T09:41:48.742Z,76.60
2018-08-17T09:44:16.820Z,79.70
2018-08-17T09:46:44.937Z,85.80
2018-08-17T09:49:13.144Z,88.70
2018-08-17T09:51:41.331Z,85.80
2018-08-17T09:54:09.465Z,85.60
2018-08-17T09:56:37.971Z,84.90
2018-08-17T09:59:06.373Z,81.90
2018-08-17T10:01:40.099Z,78.60
2018-08-17T10:04:13.749Z,76.20
2018-08-17T10:06:47.243Z,76.10
2018-08-17T10:09:20.764Z,75.50
2018-08-17T10:11:50.676Z,74.30
2018-08-17T10:14:19.717Z,73.90
2018-08-17T10:16:48.041Z,72.10
2018-08-17T10:19:16.235Z,76.40
2018-08-17T10:21:49.972Z,77.60
2018-08-17T10:24:18.298Z,78.00
2018-08-17T10:26:47.484Z,79.00
2018-08-17T10:29:15.628Z,80.00
2018-08-17T10:31:43.959Z,81.10
2018-08-17T10:34:12.472Z,81.70
2018-08-17T10:36:40.727Z,80.60
2018-08-17T10:39:09.638Z,79.60
2018-08-17T10:41:38.088Z,79.10
2018-08-17T10:44:06.220Z,81.80
2018-08-17T10:46:34.675Z,81.10
2018-08-17T10:49:02.805Z,83.20
2018-08-17T10:51:30.893Z,84.40
2018-08-17T10:53:59.081Z,84.10
2018-08-17T10:56:27.236Z,83.40
2018-08-17T10:58:55.340Z,85.90
2018-08-17T11:01:23.657Z,86.90
2018-08-17T11:03:51.844Z,87.80
2018-08-17T11:06:19.964Z,86.10
2018-08-17T11:08:48.088Z,86.30
2018-08-17T11:11:16.243Z,87.20
2018-08-17T11:13:44.416Z,86.60
2018-08-17T11:16:12.640Z,83.10
2018-08-17T11:18:40.772Z,78.80
2018-08-17T11:21:08.882Z,74.30
2018-08-17T11:23:37.086Z,74.70
2018-08-17T11:26:06.151Z,74.10
2018-08-17T11:28:34.327Z,75.20
2018-08-17T11:31:02.625Z,73.20
2018-08-17T11:33:30.892Z,73.30
2018-08-17T11:35:59.080Z,72.10
2018-08-17T11:38:27.459Z,71.70
2018-08-17T11:40:55.658Z,72.30
2018-08-17T11:43:23.823Z,70.20
2018-08-17T11:45:51.981Z,73.50
2018-08-17T11:48:27.258Z,74.40
2018-08-17T11:50:56.164Z,76.20
2018-08-17T11:53:24.282Z,78.50
2018-08-17T11:55:58.825Z,78.10
2018-08-17T11:58:27.457Z,75.90
2018-08-17T12:00:55.777Z,76.30
2018-08-17T12:03:24.826Z,76.30
2018-08-17T12:05:53.219Z,73.90
2018-08-17T12:08:22.399Z,77.10
2018-08-17T12:10:57.915Z,77.20
2018-08-17T12:13:26.499Z,76.80
2018-08-17T12:15:56.218Z,76.20
2018-08-17T12:18:24.441Z,76.10
2018-08-17T12:20:54.015Z,77.80
2018-08-17T12:23:22.274Z,77.40
2018-08-17T12:25:58.195Z,77.60
2018-08-17T12:28:28.566Z,74.90
2018-08-17T12:30:57.115Z,72.60
2018-08-17T12:33:25.295Z,72.80
2018-08-17T12:35:53.447Z,73.10
2018-08-17T12:38:21.590Z,71.00
2018-08-17T12:40:52.969Z,71.00
2018-08-17T12:43:25.276Z,72.60
2018-08-17T12:45:53.535Z,72.80
2018-08-17T12:48:21.702Z,73.10
2018-08-17T12:50:49.852Z,74.50
2018-08-17T12:53:17.951Z,73.00
2018-08-17T12:55:46.199Z,75.80
2018-08-17T12:58:14.948Z,75.10
2018-08-17T13:00:43.151Z,77.90
2018-08-17T13:03:11.272Z,79.30
2018-08-17T13:05:39.421Z,78.00
2018-08-17T13:08:08.260Z,78.70
2018-08-17T13:10:36.433Z,80.20
2018-08-17T13:13:08.343Z,78.40
2018-08-17T13:15:37.651Z,75.90
2018-08-17T13:18:14.653Z,74.60
2018-08-17T13:20:42.846Z,74.10
2018-08-17T13:23:11.137Z,72.80
2018-08-17T13:25:39.683Z,73.10
2018-08-17T13:28:07.869Z,71.80
2018-08-17T13:30:35.983Z,73.50
2018-08-17T13:33:04.125Z,72.50
2018-08-17T13:35:32.241Z,72.20
2018-08-17T13:38:00.359Z,71.60
2018-08-17T13:40:28.535Z,66.60
2018-08-17T13:42:56.660Z,60.50
2018-08-17T13:45:24.876Z,58.00
2018-08-17T13:47:53.205Z,55.90
2018-08-17T13:50:21.340Z,54.20
2018-08-17T13:52:49.493Z,54.50
2018-08-17T13:55:17.651Z,54.80
2018-08-17T13:57:45.764Z,53.60
2018-08-17T14:00:13.924Z,52.80
2018-08-17T14:02:42.035Z,53.70
2018-08-17T14:05:11.006Z,52.30
2018-08-17T14:07:39.141Z,48.20
2018-08-17T14:10:08.614Z,47.60
2018-08-17T14:12:37.464Z,45.40
2018-08-17T14:15:07.279Z,47.20
2018-08-17T14:17:35.756Z,45.00
2018-08-17T14:20:04.895Z,49.60
2018-08-17T14:22:33.048Z,49.40
2018-08-17T14:25:01.218Z,48.90
2018-08-17T14:27:29.333Z,49.00
2018-08-17T14:29:57.445Z,46.60
2018-08-17T14:32:25.605Z,44.40
2018-08-17T14:34:53.738Z,42.50
2018-08-17T14:37:21.879Z,43.00
2018-08-17T14:39:50.571Z,46.80
2018-08-17T14:42:18.744Z,47.40
2018-08-17T14:47:15.372Z,44.20
2018-08-17T14:49:43.496Z,45.50
2018-08-17T14:52:11.637Z,46.30
2018-08-17T14:54:39.760Z,45.00
2018-08-17T14:57:07.889Z,43.60
2018-08-17T14:59:36.023Z,44.60
2018-08-17T15:02:04.219Z,44.30
2018-08-17T15:04:32.360Z,45.40
2018-08-17T15:07:00.514Z,45.20
2018-08-17T15:09:28.627Z,47.80
2018-08-17T15:11:56.845Z,46.70
2018-08-17T15:14:24.966Z,46.80
2018-08-17T15:16:53.979Z,43.10
2018-08-17T15:19:22.113Z,46.50
2018-08-17T15:21:50.274Z,48.40
2018-08-17T15:24:18.429Z,44.90
2018-08-17T15:26:47.420Z,43.80
2018-08-17T15:29:15.547Z,44.90
2018-08-17T15:31:43.684Z,46.40
2018-08-17T15:34:12.009Z,43.90
2018-08-17T15:36:40.119Z,45.20
2018-08-17T15:39:08.383Z,44.80
2018-08-17T15:44:13.185Z,45.80
2018-08-17T15:46:41.346Z,47.30
2018-08-17T15:49:13.677Z,47.60
2018-08-17T15:51:41.871Z,46.30
2018-08-17T15:54:10.126Z,46.90
2018-08-17T15:56:38.348Z,47.30
2018-08-17T15:59:06.734Z,48.00
2018-08-17T16:01:34.979Z,48.40
2018-08-17T16:04:02.981Z,48.60
2018-08-17T16:06:31.153Z,49.90
2018-08-17T16:09:00.047Z,49.40
2018-08-17T16:11:28.179Z,48.50
2018-08-17T16:13:56.291Z,49.80
2018-08-17T16:16:24.503Z,49.50
2018-08-17T16:18:52.615Z,48.30
2018-08-17T16:21:20.772Z,48.60
2018-08-17T16:23:48.904Z,47.80
2018-08-17T16:26:16.991Z,47.30
2018-08-17T16:28:45.100Z,48.00
2018-08-17T16:31:13.271Z,48.60
2018-08-17T16:33:41.398Z,47.40
2018-08-17T16:36:09.529Z,48.20
2018-08-17T16:38:38.419Z,48.60
2018-08-17T16:41:07.088Z,49.30
2018-08-17T16:43:44.807Z,49.20
2018-08-17T16:46:13.355Z,49.30
2018-08-17T16:48:42.067Z,49.30
2018-08-17T16:51:10.456Z,49.00
2018-08-17T16:53:38.674Z,48.80
2018-08-17T16:56:06.824Z,48.00
2018-08-17T16:58:34.978Z,47.80
2018-08-17T17:01:03.116Z,46.30
2018-08-17T17:03:31.252Z,46.00
2018-08-17T17:06:01.623Z,46.10
2018-08-17T17:08:30.215Z,45.80
2018-08-17T17:10:58.806Z,45.70
2018-08-17T17:13:26.933Z,46.50
2018-08-17T17:15:55.071Z,45.40
2018-08-17T17:18:23.191Z,45.80
2018-08-17T17:20:51.465Z,45.10
2018-08-17T17:23:19.771Z,45.40
2018-08-17T17:25:48.062Z,46.20
2018-08-17T17:28:16.302Z,45.60
2018-08-17T17:30:55.868Z,46.10
2018-08-17T17:33:24.069Z,46.10
2018-08-17T17:35:52.213Z,46.60
2018-08-17T17:38:20.350Z,46.60
2018-08-17T17:40:48.531Z,46.60
2018-08-17T17:43:16.770Z,46.90
2018-08-17T17:45:44.942Z,46.80
2018-08-17T17:48:13.105Z,47.60
2018-08-17T17:50:41.274Z,47.40
2018-08-17T17:53:09.533Z,47.90
2018-08-17T17:55:43.159Z,47.90
2018-08-17T17:58:11.538Z,48.70
2018-08-17T18:00:39.716Z,48.90
2018-08-17T18:03:08.053Z,48.30
2018-08-17T18:05:36.207Z,49.20
2018-08-17T18:08:22.763Z,49.00
2018-08-17T18:10:50.877Z,49.40
2018-08-17T18:13:18.983Z,48.70
2018-08-17T18:15:47.109Z,49.60
2018-08-17T18:18:15.236Z,49.20
2018-08-17T18:20:43.384Z,50.50
2018-08-17T18:23:11.557Z,50.20
2018-08-17T18:25:39.705Z,50.90
2018-08-17T18:28:07.795Z,50.40
2018-08-17T18:30:35.931Z,51.00
2018-08-17T18:33:04.066Z,51.70
2018-08-17T18:35:32.206Z,51.90
2018-08-17T18:38:00.326Z,52.10
2018-08-17T18:40:28.523Z,53.40
2018-08-17T18:42:56.744Z,55.20
2018-08-17T18:45:24.968Z,52.40
2018-08-17T18:47:53.120Z,53.20
2018-08-17T18:50:21.255Z,53.90
2018-08-17T18:52:49.424Z,55.40
2018-08-17T18:55:17.565Z,55.80
2018-08-17T18:57:45.824Z,56.90
2018-08-17T19:00:14.367Z,56.50
2018-08-17T19:02:42.771Z,57.30
2018-08-17T19:05:13.274Z,56.60
2018-08-17T19:07:41.960Z,56.80
2018-08-17T19:10:10.568Z,56.10
2018-08-17T19:12:38.722Z,56.20
2018-08-17T19:15:10.432Z,57.30
2018-08-17T19:17:38.694Z,57.90
2018-08-17T19:20:10.379Z,59.40
2018-08-17T19:22:40.274Z,60.70
2018-08-17T19:25:09.633Z,60.10
2018-08-17T19:27:38.280Z,61.60
2018-08-17T19:30:18.923Z,61.90
2018-08-17T19:32:47.372Z,60.70
2018-08-17T19:35:15.604Z,61.10
2018-08-17T19:37:43.727Z,62.80
2018-08-17T19:40:11.855Z,63.10
2018-08-17T19:42:40.025Z,62.30
2018-08-17T19:45:08.131Z,62.50
2018-08-17T19:47:36.263Z,64.10
2018-08-17T19:50:04.471Z,65.20
2018-08-17T19:52:32.529Z,65.70
2018-08-17T19:55:00.681Z,66.50
2018-08-17T19:57:28.793Z,67.50
2018-08-17T19:59:56.924Z,69.20
2018-08-17T20:02:25.060Z,68.30
2018-08-17T20:04:53.164Z,68.40
2018-08-17T20:07:21.357Z,68.60
2018-08-17T20:09:49.463Z,70.30
2018-08-17T20:12:17.591Z,68.40
2018-08-17T20:14:45.726Z,70.40
2018-08-17T20:17:13.881Z,70.00
2018-08-17T20:19:46.940Z,71.00
2018-08-17T20:22:20.031Z,72.50
2018-08-17T20:24:48.320Z,72.80
2018-08-17T20:27:16.902Z,75.00
2018-08-17T20:29:45.159Z,74.60
2018-08-17T20:32:13.310Z,75.70
2018-08-17T20:34:47.162Z,76.90
2018-08-17T20:37:16.036Z,76.60
2018-08-17T20:39:45.172Z,76.20
2018-08-17T20:42:13.559Z,76.40
2018-08-17T20:44:41.674Z,77.40
2018-08-17T20:47:10.595Z,78.50
2018-08-17T20:49:38.737Z,79.90
2018-08-17T20:52:07.451Z,80.80
2018-08-17T20:54:35.682Z,79.90
2018-08-17T20:57:03.816Z,80.70
2018-08-17T20:59:31.977Z,80.50
2018-08-17T21:02:00.248Z,82.20
2018-08-17T21:04:28.434Z,81.70
2018-08-17T21:06:56.714Z,81.00
2018-08-17T21:09:24.848Z,80.40
2018-08-17T21:11:53.097Z,80.70
2018-08-17T21:14:21.304Z,81.20
2018-08-17T21:16:49.503Z,81.40
2018-08-17T21:19:22.164Z,81.90
2018-08-17T21:21:50.591Z,83.10
2018-08-17T21:24:18.779Z,83.10
2018-08-17T21:26:47.082Z,82.70
2018-08-17T21:29:15.617Z,83.40
2018-08-17T21:31:43.721Z,83.80
2018-08-17T21:34:12.892Z,83.60
2018-08-17T21:36:41.012Z,83.40
2018-08-17T21:39:11.031Z,85.40
2018-08-17T21:41:40.652Z,83.30
2018-08-17T21:44:11.208Z,83.80
2018-08-17T21:46:39.429Z,83.60
2018-08-17T21:49:07.567Z,83.30
2018-08-17T21:51:35.972Z,83.70
2018-08-17T21:54:05.275Z,83.90
2018-08-17T21:56:33.707Z,83.70
2018-08-17T21:59:01.856Z,83.70
2018-08-17T22:01:29.975Z,83.60
2018-08-17T22:03:58.140Z,84.10
2018-08-17T22:06:26.281Z,83.40
2018-08-17T22:08:54.452Z,84.10
2018-08-17T22:11:32.753Z,83.90
2018-08-17T22:14:00.864Z,83.70
2018-08-17T22:16:29.039Z,84.30
2018-08-17T22:18:57.468Z,84.60
2018-08-17T22:21:25.911Z,84.70
2018-08-17T22:23:54.910Z,85.30
2018-08-17T22:26:23.704Z,85.00
2018-08-17T22:28:51.833Z,84.60
2018-08-17T22:31:51.085Z,81.30
2018-08-17T22:34:19.277Z,81.40
2018-08-17T22:36:47.464Z,83.30
2018-08-17T22:39:15.637Z,83.30
2018-08-17T22:41:43.853Z,81.80
2018-08-17T22:44:17.395Z,82.20
2018-08-17T22:47:12.144Z,82.20
2018-08-17T22:49:40.307Z,80.90
2018-08-17T22:52:08.459Z,82.00
2018-08-17T22:54:40.876Z,82.90
2018-08-17T22:57:09.936Z,82.90
2018-08-17T22:59:38.091Z,82.60
2018-08-17T23:02:06.579Z,80.80
2018-08-17T23:04:34.753Z,81.50
2018-08-17T23:07:02.907Z,82.80
2018-08-17T23:09:31.164Z,82.80
2018-08-17T23:11:59.318Z,83.30
2018-08-17T23:14:27.462Z,82.90
2018-08-17T23:16:55.610Z,83.50
2018-08-17T23:19:23.815Z,84.10
2018-08-17T23:21:51.968Z,84.40
2018-08-17T23:24:21.144Z,84.00
2018-08-17T23:26:49.272Z,83.70
2018-08-17T23:29:17.395Z,84.00
2018-08-17T23:31:45.621Z,85.10
2018-08-17T23:34:14.243Z,85.80
2018-08-17T23:36:43.156Z,85.30
2018-08-17T23:39:11.542Z,85.00
2018-08-17T23:41:39.661Z,84.20
2018-08-17T23:44:07.780Z,83.90
2018-08-17T23:46:35.915Z,84.60
2018-08-17T23:49:04.147Z,86.30
2018-08-17T23:51:32.284Z,86.90
2018-08-17T23:54:00.508Z,86.70
2018-08-17T23:56:28.659Z,86.30
2018-08-17T23:58:56.823Z,86.60
